createdAt,value
2023-04-10T00:00:57.670Z,97592.78
2023-04-10T00:03:26.250Z,97594.24
2023-04-10T00:05:55.062Z,97590.20
2023-04-10T00:08:24.803Z,97584.98
2023-04-10T00:10:54.693Z,97585.77
2023-04-10T00:13:23.510Z,97578.30
2023-04-10T00:15:53.129Z,97577.69
2023-04-10T00:18:21.088Z,97580.84
2023-04-10T00:20:49.736Z,97579.55
2023-04-10T00:23:18.282Z,97574.00
2023-04-10T00:25:47.889Z,97570.64
2023-04-10T00:28:17.482Z,97569.70
2023-04-10T00:30:46.230Z,97565.13
2023-04-10T00:33:15.119Z,97564.69
2023-04-10T00:35:43.733Z,97560.30
2023-04-10T00:38:12.605Z,97559.65
2023-04-10T00:40:42.569Z,97556.49
2023-04-10T00:43:11.353Z,97552.95
2023-04-10T00:45:39.660Z,97553.86
2023-04-10T00:48:08.826Z,97554.46
2023-04-10T00:50:38.052Z,97552.17
2023-04-10T00:53:07.287Z,97554.77
2023-04-10T00:55:35.652Z,97552.65
2023-04-10T00:58:03.972Z,97552.17
2023-04-10T01:00:32.960Z,97551.73
2023-04-10T01:03:02.030Z,97548.92
2023-04-10T01:05:35.575Z,97547.45
2023-04-10T01:08:18.937Z,97544.80
2023-04-10T01:10:56.689Z,97545.08
2023-04-10T01:13:30.855Z,97544.96
2023-04-10T01:16:03.143Z,97538.81
2023-04-10T01:18:34.371Z,97542.58
2023-04-10T01:21:03.299Z,97538.89
2023-04-10T01:23:50.007Z,97540.33
2023-04-10T01:26:27.443Z,97537.70
2023-04-10T01:29:04.424Z,97536.77
2023-04-10T01:31:37.676Z,97537.50
2023-04-10T01:34:10.712Z,97537.08
2023-04-10T01:36:44.397Z,97536.50
2023-04-10T01:39:12.978Z,97534.88
2023-04-10T01:41:41.628Z,97533.40
2023-04-10T01:44:14.975Z,97529.37
2023-04-10T01:46:44.681Z,97527.38
2023-04-10T01:49:14.394Z,97528.48
2023-04-10T01:51:43.562Z,97525.13
2023-04-10T01:54:13.126Z,97525.23
2023-04-10T01:56:42.176Z,97525.13
2023-04-10T01:59:12.538Z,97525.39
2023-04-10T02:01:41.073Z,97531.46
2023-04-10T02:04:10.150Z,97535.34
2023-04-10T02:06:47.414Z,97532.70
2023-04-10T02:09:17.338Z,97531.62
2023-04-10T02:11:49.577Z,97528.80
2023-04-10T02:14:20.710Z,97528.04
2023-04-10T02:16:53.056Z,97530.04
2023-04-10T02:19:24.360Z,97529.66
2023-04-10T02:21:54.146Z,97524.77
2023-04-10T02:24:25.178Z,97519.09
2023-04-10T02:26:53.970Z,97517.64
2023-04-10T02:29:22.525Z,97524.04
2023-04-10T02:31:50.940Z,97524.64
2023-04-10T02:34:20.428Z,97524.04
2023-04-10T02:36:48.719Z,97521.75
2023-04-10T02:39:16.824Z,97520.66
2023-04-10T02:41:51.701Z,97519.25
2023-04-10T02:44:20.637Z,97520.09
2023-04-10T02:46:49.585Z,97520.71
2023-04-10T02:49:19.075Z,97519.95
2023-04-10T02:51:47.765Z,97518.56
2023-04-10T02:54:16.193Z,97519.54
2023-04-10T02:56:45.081Z,97514.84
2023-04-10T02:59:13.873Z,97516.96
2023-04-10T03:01:44.116Z,97511.73
2023-04-10T03:04:13.162Z,97512.33
2023-04-10T03:06:42.899Z,97511.17
2023-04-10T03:09:11.337Z,97511.09
2023-04-10T03:11:39.885Z,97509.44
2023-04-10T03:14:09.958Z,97508.12
2023-04-10T03:16:40.132Z,97508.34
2023-04-10T03:19:08.196Z,97504.83
2023-04-10T03:21:36.274Z,97504.20
2023-04-10T03:24:06.462Z,97505.30
2023-04-10T03:26:35.010Z,97504.39
2023-04-10T03:29:04.013Z,97509.09
2023-04-10T03:31:32.617Z,97508.48
2023-04-10T03:34:01.363Z,97507.02
2023-04-10T03:36:29.918Z,97508.99
2023-04-10T03:38:58.055Z,97515.89
2023-04-10T03:41:26.562Z,97515.98
2023-04-10T03:43:55.474Z,97514.54
2023-04-10T03:46:24.615Z,97516.69
2023-04-10T03:48:54.245Z,97515.88
2023-04-10T03:51:24.989Z,97517.68
2023-04-10T03:53:54.522Z,97516.89
2023-04-10T03:56:24.549Z,97517.30
2023-04-10T03:58:52.664Z,97515.66
2023-04-10T04:01:22.919Z,97514.85
2023-04-10T04:04:03.904Z,97512.32
2023-04-10T04:06:58.913Z,97514.80
2023-04-10T04:09:47.603Z,97517.61
2023-04-10T04:12:35.784Z,97515.33
2023-04-10T04:15:10.271Z,97518.30
2023-04-10T04:17:55.921Z,97516.99
2023-04-10T04:20:53.464Z,97517.43
2023-04-10T04:23:37.172Z,97517.50
2023-04-10T04:26:26.477Z,97517.96
2023-04-10T04:29:18.417Z,97515.65
2023-04-10T04:32:12.605Z,97515.45
2023-04-10T04:34:56.523Z,97516.56
2023-04-10T04:37:56.975Z,97521.25
2023-04-10T04:41:01.618Z,97523.26
2023-04-10T04:43:47.562Z,97518.89
2023-04-10T04:46:44.674Z,97515.91
2023-04-10T04:49:12.958Z,97517.05
2023-04-10T04:52:00.048Z,97520.55
2023-04-10T04:54:38.728Z,97520.09
2023-04-10T04:57:16.577Z,97519.96
2023-04-10T05:00:06.335Z,97521.90
2023-04-10T05:02:53.594Z,97518.88
2023-04-10T05:05:34.309Z,97518.91
2023-04-10T05:08:16.930Z,97517.95
2023-04-10T05:10:59.368Z,97519.00
2023-04-10T05:14:04.080Z,97516.48
2023-04-10T05:17:00.008Z,97520.77
2023-04-10T05:19:46.881Z,97522.51
2023-04-10T05:22:25.477Z,97520.52
2023-04-10T05:25:09.162Z,97525.52
2023-04-10T05:27:48.524Z,97525.91
2023-04-10T05:30:50.884Z,97522.04
2023-04-10T05:33:34.316Z,97522.29
2023-04-10T05:36:11.291Z,97522.38
2023-04-10T05:39:03.599Z,97524.31
2023-04-10T05:41:56.879Z,97524.04
2023-04-10T05:44:31.135Z,97525.67
2023-04-10T05:47:26.361Z,97526.56
2023-04-10T05:50:15.426Z,97525.95
2023-04-10T05:53:14.322Z,97522.73
2023-04-10T05:56:05.975Z,97521.38
2023-04-10T05:58:44.439Z,97517.80
2023-04-10T06:01:32.786Z,97518.66
2023-04-10T06:04:04.041Z,97515.61
2023-04-10T06:06:33.679Z,97515.95
2023-04-10T06:09:09.947Z,97512.36
2023-04-10T06:11:38.651Z,97510.63
2023-04-10T06:14:07.975Z,97508.38
2023-04-10T06:16:40.123Z,97507.34
2023-04-10T06:19:09.958Z,97499.63
2023-04-10T06:21:38.870Z,97498.54
2023-04-10T06:24:09.211Z,97494.55
2023-04-10T06:26:38.874Z,97496.02
2023-04-10T06:29:07.250Z,97497.00
2023-04-10T06:31:35.646Z,97494.06
2023-04-10T06:34:04.918Z,97491.30
2023-04-10T06:36:33.754Z,97489.40
2023-04-10T06:39:04.844Z,97490.23
2023-04-10T06:41:33.592Z,97489.20
2023-04-10T06:44:16.249Z,97484.39
2023-04-10T06:46:45.118Z,97483.34
2023-04-10T06:49:13.636Z,97482.48
2023-04-10T06:51:45.876Z,97481.98
2023-04-10T06:54:14.946Z,97479.61
2023-04-10T06:56:45.168Z,97478.45
2023-04-10T06:59:13.354Z,97477.79
2023-04-10T07:01:41.305Z,97475.11
2023-04-10T07:04:10.695Z,97473.41
2023-04-10T07:06:39.549Z,97474.16
2023-04-10T07:09:08.631Z,97474.18
2023-04-10T07:11:37.046Z,97474.58
2023-04-10T07:14:05.948Z,97472.91
2023-04-10T07:16:35.731Z,97479.27
2023-04-10T07:19:03.643Z,97472.82
2023-04-10T07:21:33.750Z,97473.02
2023-04-10T07:24:02.142Z,97471.48
2023-04-10T07:26:31.077Z,97469.98
2023-04-10T07:28:59.143Z,97468.25
2023-04-10T07:31:27.610Z,97471.84
2023-04-10T07:33:55.877Z,97469.30
2023-04-10T07:36:27.354Z,97465.37
2023-04-10T07:38:56.653Z,97467.41
2023-04-10T07:41:25.807Z,97464.98
2023-04-10T07:43:53.923Z,97463.97
2023-04-10T07:46:27.624Z,97460.19
2023-04-10T07:48:56.069Z,97455.85
2023-04-10T07:51:24.389Z,97458.90
2023-04-10T07:53:52.442Z,97455.95
2023-04-10T07:56:21.636Z,97453.52
2023-04-10T07:58:51.915Z,97447.33
2023-04-10T08:01:20.380Z,97445.91
2023-04-10T08:03:48.938Z,97443.96
2023-04-10T08:06:18.562Z,97443.57
2023-04-10T08:08:46.820Z,97446.59
2023-04-10T08:11:25.874Z,97440.37
2023-04-10T08:13:55.277Z,97439.08
2023-04-10T08:16:27.850Z,97434.73
2023-04-10T08:18:58.294Z,97434.95
2023-04-10T08:21:27.460Z,97443.92
2023-04-10T08:23:59.660Z,97437.11
2023-04-10T08:26:28.361Z,97435.45
2023-04-10T08:28:58.524Z,97433.27
2023-04-10T08:31:28.413Z,97430.80
2023-04-10T08:33:57.189Z,97421.30
2023-04-10T08:36:27.347Z,97420.02
2023-04-10T08:38:55.961Z,97418.89
2023-04-10T08:41:23.987Z,97411.80
2023-04-10T08:43:53.858Z,97410.67
2023-04-10T08:46:24.878Z,97414.20
2023-04-10T08:48:59.933Z,97407.10
2023-04-10T08:51:43.652Z,97404.00
2023-04-10T08:54:19.619Z,97411.63
2023-04-10T08:56:51.535Z,97404.54
2023-04-10T08:59:21.852Z,97400.29
2023-04-10T09:01:50.129Z,97398.66
2023-04-10T09:04:18.535Z,97404.02
2023-04-10T09:06:48.190Z,97404.77
2023-04-10T09:09:16.911Z,97399.83
2023-04-10T09:12:00.996Z,97398.14
2023-04-10T09:14:32.100Z,97396.77
2023-04-10T09:17:11.471Z,97390.89
2023-04-10T09:19:40.832Z,97390.60
2023-04-10T09:22:09.662Z,97393.11
2023-04-10T09:24:39.271Z,97391.65
2023-04-10T09:27:07.889Z,97385.86
2023-04-10T09:29:44.147Z,97375.62
2023-04-10T09:32:12.916Z,97367.59
2023-04-10T09:34:59.289Z,97365.47
2023-04-10T09:37:34.857Z,97368.98
2023-04-10T09:40:04.727Z,97371.96
2023-04-10T09:42:33.990Z,97373.59
2023-04-10T09:45:04.092Z,97374.00
2023-04-10T09:47:33.281Z,97370.47
2023-04-10T09:50:04.005Z,97368.80
2023-04-10T09:52:34.508Z,97367.70
2023-04-10T09:55:04.446Z,97365.39
2023-04-10T09:57:33.754Z,97364.63
2023-04-10T10:00:07.022Z,97360.45
2023-04-10T10:02:37.534Z,97361.92
2023-04-10T10:05:06.807Z,97359.95
2023-04-10T10:07:36.127Z,97358.89
2023-04-10T10:10:07.651Z,97364.40
2023-04-10T10:12:41.167Z,97366.27
2023-04-10T10:15:17.519Z,97365.65
2023-04-10T10:17:50.391Z,97364.69
2023-04-10T10:20:22.085Z,97358.61
2023-04-10T10:22:51.760Z,97356.35
2023-04-10T10:25:23.016Z,97357.20
2023-04-10T10:28:01.135Z,97349.58
2023-04-10T10:30:34.425Z,97337.08
2023-04-10T10:33:07.478Z,97335.95
2023-04-10T10:35:36.182Z,97342.13
2023-04-10T10:38:05.883Z,97333.57
2023-04-10T10:40:33.988Z,97331.38
2023-04-10T10:43:06.963Z,97330.22
2023-04-10T10:45:58.273Z,97324.64
2023-04-10T10:48:26.410Z,97324.14
2023-04-10T10:50:57.606Z,97329.58
2023-04-10T10:53:43.918Z,97327.27
2023-04-10T10:56:24.201Z,97321.27
2023-04-10T10:59:02.198Z,97316.16
2023-04-10T11:01:31.576Z,97314.16
2023-04-10T11:04:07.249Z,97307.31
2023-04-10T11:06:48.981Z,97306.33
2023-04-10T11:09:35.798Z,97306.15
2023-04-10T11:12:05.652Z,97305.87
2023-04-10T11:14:35.864Z,97305.41
2023-04-10T11:17:03.958Z,97306.36
2023-04-10T11:20:09.477Z,97298.27
2023-04-10T11:22:57.406Z,97292.74
2023-04-10T11:25:45.630Z,97295.87
2023-04-10T11:28:35.897Z,97294.58
2023-04-10T11:31:27.473Z,97291.86
2023-04-10T11:34:02.902Z,97286.52
2023-04-10T11:36:32.333Z,97283.34
2023-04-10T11:39:06.060Z,97280.50
2023-04-10T11:41:39.374Z,97277.83
2023-04-10T11:44:09.004Z,97273.62
2023-04-10T11:46:38.698Z,97269.94
2023-04-10T11:49:09.793Z,97263.47
2023-04-10T11:51:38.442Z,97270.17
2023-04-10T11:54:27.992Z,97272.56
2023-04-10T11:57:06.335Z,97266.73
2023-04-10T11:59:35.603Z,97265.38
2023-04-10T12:02:11.864Z,97274.05
2023-04-10T12:04:41.221Z,97262.45
2023-04-10T12:07:09.739Z,97258.52
2023-04-10T12:09:37.771Z,97254.47
2023-04-10T12:12:07.303Z,97247.02
2023-04-10T12:14:37.197Z,97245.56
2023-04-10T12:17:06.808Z,97239.48
2023-04-10T12:19:35.420Z,97232.92
2023-04-10T12:22:03.617Z,97239.23
2023-04-10T12:24:46.449Z,97235.75
2023-04-10T12:27:28.172Z,97230.16
2023-04-10T12:29:58.679Z,97234.63
2023-04-10T12:32:29.941Z,97235.79
2023-04-10T12:34:59.418Z,97229.59
2023-04-10T12:37:46.325Z,97229.48
2023-04-10T12:40:14.822Z,97224.54
2023-04-10T12:42:43.360Z,97226.19
2023-04-10T12:45:14.834Z,97222.36
2023-04-10T12:47:45.809Z,97219.70
2023-04-10T12:50:15.476Z,97212.98
2023-04-10T12:52:44.520Z,97210.84
2023-04-10T12:55:17.009Z,97210.04
2023-04-10T12:57:46.275Z,97207.90
2023-04-10T13:00:15.877Z,97208.05
2023-04-10T13:02:45.065Z,97204.58
2023-04-10T13:05:13.313Z,97192.82
2023-04-10T13:07:42.260Z,97188.06
2023-04-10T13:10:10.427Z,97191.34
2023-04-10T13:12:39.300Z,97194.16
2023-04-10T13:15:08.246Z,97185.59
2023-04-10T13:17:36.501Z,97190.87
2023-04-10T13:20:04.792Z,97190.41
2023-04-10T13:22:32.789Z,97184.73
2023-04-10T13:25:01.126Z,97185.75
2023-04-10T13:27:29.105Z,97184.58
2023-04-10T13:29:57.116Z,97182.60
2023-04-10T13:32:25.380Z,97175.48
2023-04-10T13:34:54.834Z,97176.48
2023-04-10T13:37:22.858Z,97177.88
2023-04-10T13:39:50.938Z,97174.54
2023-04-10T13:42:18.798Z,97169.78
2023-04-10T13:44:46.809Z,97175.02
2023-04-10T13:47:14.914Z,97172.44
2023-04-10T13:49:42.964Z,97172.60
2023-04-10T13:52:11.864Z,97171.14
2023-04-10T13:54:39.745Z,97168.29
2023-04-10T13:57:07.862Z,97164.55
2023-04-10T13:59:35.918Z,97164.58
2023-04-10T14:02:04.470Z,97162.00
2023-04-10T14:04:32.582Z,97161.92
2023-04-10T14:07:02.366Z,97159.48
2023-04-10T14:09:31.204Z,97158.49
2023-04-10T14:11:59.625Z,97157.61
2023-04-10T14:14:27.810Z,97153.25
2023-04-10T14:16:57.919Z,97153.27
2023-04-10T14:19:26.068Z,97154.88
2023-04-10T14:21:54.213Z,97154.06
2023-04-10T14:24:22.289Z,97150.78
2023-04-10T14:26:52.268Z,97150.40
2023-04-10T14:29:25.491Z,97150.21
2023-04-10T14:32:01.452Z,97145.38
2023-04-10T14:34:29.438Z,97141.41
2023-04-10T14:36:58.799Z,97141.77
2023-04-10T14:39:26.945Z,97141.80
2023-04-10T14:41:54.874Z,97143.48
2023-04-10T14:44:22.840Z,97142.13
2023-04-10T14:46:51.044Z,97141.33
2023-04-10T14:49:19.229Z,97143.70
2023-04-10T14:51:49.673Z,97144.44
2023-04-10T14:54:21.725Z,97147.12
2023-04-10T14:56:50.086Z,97144.23
2023-04-10T14:59:18.467Z,97144.82
2023-04-10T15:01:47.667Z,97142.68
2023-04-10T15:04:16.840Z,97143.05
2023-04-10T15:06:45.276Z,97142.20
2023-04-10T15:09:14.633Z,97139.52
2023-04-10T15:11:42.501Z,97136.13
2023-04-10T15:14:12.262Z,97137.00
2023-04-10T15:16:41.073Z,97135.16
2023-04-10T15:19:09.244Z,97136.02
2023-04-10T15:21:37.277Z,97131.80
2023-04-10T15:24:06.995Z,97132.02
2023-04-10T15:26:35.218Z,97129.55
2023-04-10T15:29:03.491Z,97126.63
2023-04-10T15:31:31.506Z,97130.02
2023-04-10T15:34:00.059Z,97126.18
2023-04-10T15:36:29.352Z,97121.70
2023-04-10T15:38:59.980Z,97117.29
2023-04-10T15:41:30.302Z,97117.46
2023-04-10T15:43:58.477Z,97113.40
2023-04-10T15:46:27.159Z,97111.48
2023-04-10T15:48:56.283Z,97110.98
2023-04-10T15:51:24.370Z,97111.58
2023-04-10T15:53:54.452Z,97112.14
2023-04-10T15:56:22.553Z,97109.38
2023-04-10T15:58:50.471Z,97109.20
2023-04-10T16:01:19.120Z,97107.19
2023-04-10T16:03:49.586Z,97110.16
2023-04-10T16:06:18.009Z,97111.88
2023-04-10T16:08:46.147Z,97111.98
2023-04-10T16:11:14.874Z,97110.04
2023-04-10T16:13:44.847Z,97108.38
2023-04-10T16:16:16.683Z,97106.48
2023-04-10T16:18:45.241Z,97106.30
2023-04-10T16:21:16.741Z,97106.81
2023-04-10T16:23:44.875Z,97107.58
2023-04-10T16:26:13.652Z,97105.30
2023-04-10T16:28:41.648Z,97108.84
2023-04-10T16:31:10.076Z,97112.89
2023-04-10T16:33:38.014Z,97113.33
2023-04-10T16:36:06.540Z,97111.14
2023-04-10T16:38:35.531Z,97111.73
2023-04-10T16:41:04.855Z,97113.23
2023-04-10T16:43:36.816Z,97115.38
2023-04-10T16:46:05.190Z,97120.85
2023-04-10T16:48:36.248Z,97122.38
2023-04-10T16:51:06.949Z,97122.73
2023-04-10T16:53:36.329Z,97122.31
2023-04-10T16:56:05.494Z,97122.12
2023-04-10T16:58:34.184Z,97125.89
2023-04-10T17:01:19.293Z,97126.84
2023-04-10T17:03:49.089Z,97130.23
2023-04-10T17:06:18.063Z,97132.35
2023-04-10T17:08:46.509Z,97134.67
2023-04-10T17:11:14.904Z,97135.64
2023-04-10T17:13:43.289Z,97139.15
2023-04-10T17:16:11.240Z,97139.50
2023-04-10T17:18:40.235Z,97141.66
2023-04-10T17:21:13.251Z,97140.46
2023-04-10T17:23:42.081Z,97142.45
2023-04-10T17:26:14.092Z,97143.25
2023-04-10T17:28:45.278Z,97144.55
2023-04-10T17:31:14.020Z,97145.17
2023-04-10T17:33:42.606Z,97144.57
2023-04-10T17:36:12.503Z,97147.30
2023-04-10T17:38:42.695Z,97149.10
2023-04-10T17:41:14.058Z,97154.61
2023-04-10T17:43:43.306Z,97156.79
2023-04-10T17:46:15.627Z,97156.84
2023-04-10T17:48:44.604Z,97158.19
2023-04-10T17:51:12.632Z,97162.14
2023-04-10T17:53:41.866Z,97166.66
2023-04-10T17:56:18.191Z,97167.35
2023-04-10T17:58:47.049Z,97173.03
2023-04-10T18:01:22.503Z,97170.77
2023-04-10T18:03:50.593Z,97175.68
2023-04-10T18:06:18.883Z,97176.15
2023-04-10T18:08:47.428Z,97172.95
2023-04-10T18:11:15.494Z,97173.98
2023-04-10T18:13:44.718Z,97170.95
2023-04-10T18:16:13.296Z,97170.98
2023-04-10T18:18:44.418Z,97175.35
2023-04-10T18:21:13.977Z,97176.09
2023-04-10T18:23:42.518Z,97176.08
2023-04-10T18:26:11.157Z,97178.06
2023-04-10T18:28:39.601Z,97180.95
2023-04-10T18:31:08.553Z,97188.98
2023-04-10T18:33:38.541Z,97189.23
2023-04-10T18:36:07.038Z,97195.35
2023-04-10T18:38:35.995Z,97199.09
2023-04-10T18:41:05.101Z,97198.98
2023-04-10T18:43:33.351Z,97200.33
2023-04-10T18:46:02.129Z,97203.58
2023-04-10T18:48:30.382Z,97204.93
2023-04-10T18:51:00.006Z,97205.06
2023-04-10T18:53:27.931Z,97203.23
2023-04-10T18:55:56.421Z,97201.61
2023-04-10T18:58:24.846Z,97199.73
2023-04-10T19:00:53.425Z,97201.95
2023-04-10T19:03:22.350Z,97203.70
2023-04-10T19:05:51.013Z,97206.72
2023-04-10T19:08:19.164Z,97202.27
2023-04-10T19:10:48.146Z,97202.70
2023-04-10T19:13:16.765Z,97196.30
2023-04-10T19:15:47.357Z,97197.15
2023-04-10T19:18:16.603Z,97196.61
2023-04-10T19:20:50.915Z,97200.69
2023-04-10T19:23:21.301Z,97201.30
2023-04-10T19:25:54.188Z,97200.88
2023-04-10T19:28:23.387Z,97200.45
2023-04-10T19:30:52.871Z,97199.65
2023-04-10T19:33:22.058Z,97202.02
2023-04-10T19:35:49.982Z,97202.16
2023-04-10T19:38:18.087Z,97201.35
2023-04-10T19:40:47.426Z,97203.26
2023-04-10T19:43:16.644Z,97202.14
2023-04-10T19:45:44.980Z,97199.61
2023-04-10T19:48:16.417Z,97199.02
2023-04-10T19:50:45.967Z,97202.55
2023-04-10T19:53:16.221Z,97202.27
2023-04-10T19:55:45.857Z,97206.05
2023-04-10T19:58:35.547Z,97205.27
2023-04-10T20:01:04.598Z,97199.27
2023-04-10T20:03:34.455Z,97199.73
2023-04-10T20:06:03.842Z,97199.16
2023-04-10T20:08:32.386Z,97201.05
2023-04-10T20:11:02.532Z,97198.98
2023-04-10T20:13:31.808Z,97200.05
2023-04-10T20:16:01.283Z,97199.29
2023-04-10T20:18:31.768Z,97199.38
2023-04-10T20:20:59.973Z,97202.94
2023-04-10T20:23:28.022Z,97201.85
2023-04-10T20:25:57.930Z,97203.80
2023-04-10T20:28:26.221Z,97199.34
2023-04-10T20:30:54.627Z,97194.06
2023-04-10T20:33:23.066Z,97195.15
2023-04-10T20:35:53.361Z,97194.63
2023-04-10T20:38:22.479Z,97193.05
2023-04-10T20:40:51.483Z,97186.80
2023-04-10T20:43:21.208Z,97186.55
2023-04-10T20:45:49.772Z,97182.60
2023-04-10T20:48:18.691Z,97178.70
2023-04-10T20:50:47.597Z,97174.28
2023-04-10T20:53:16.857Z,97172.88
2023-04-10T20:55:45.225Z,97170.43
2023-04-10T20:58:13.524Z,97168.24
2023-04-10T21:00:42.305Z,97165.23
2023-04-10T21:03:11.415Z,97167.42
2023-04-10T21:05:43.936Z,97162.13
2023-04-10T21:08:20.842Z,97159.91
2023-04-10T21:10:49.977Z,97158.16
2023-04-10T21:13:18.860Z,97160.40
2023-04-10T21:15:49.740Z,97162.68
2023-04-10T21:18:18.685Z,97161.48
2023-04-10T21:20:46.729Z,97161.30
2023-04-10T21:23:16.327Z,97161.16
2023-04-10T21:25:49.684Z,97161.67
2023-04-10T21:28:18.052Z,97159.80
2023-04-10T21:30:46.277Z,97161.03
2023-04-10T21:33:15.270Z,97163.84
2023-04-10T21:35:44.910Z,97160.07
2023-04-10T21:38:13.706Z,97160.08
2023-04-10T21:40:42.876Z,97163.02
2023-04-10T21:43:11.988Z,97163.88
2023-04-10T21:45:40.106Z,97161.13
2023-04-10T21:48:08.809Z,97158.00
2023-04-10T21:50:37.404Z,97164.05
2023-04-10T21:53:06.052Z,97159.56
2023-04-10T21:55:36.116Z,97157.23
2023-04-10T21:58:05.083Z,97154.13
2023-04-10T22:00:33.980Z,97157.36
2023-04-10T22:03:02.154Z,97157.54
2023-04-10T22:05:31.853Z,97149.26
2023-04-10T22:07:59.918Z,97149.77
2023-04-10T22:10:27.912Z,97147.36
2023-04-10T22:12:57.668Z,97144.76
2023-04-10T22:15:26.571Z,97143.89
2023-04-10T22:17:55.374Z,97147.13
2023-04-10T22:20:24.829Z,97143.18
2023-04-10T22:22:52.868Z,97144.23
2023-04-10T22:25:21.462Z,97141.73
2023-04-10T22:27:49.652Z,97142.90
2023-04-10T22:30:18.682Z,97143.75
2023-04-10T22:32:48.158Z,97142.13
2023-04-10T22:35:16.434Z,97141.34
2023-04-10T22:37:45.225Z,97140.77
2023-04-10T22:40:13.601Z,97137.72
2023-04-10T22:42:43.778Z,97138.48
2023-04-10T22:45:12.770Z,97136.05
2023-04-10T22:47:40.997Z,97134.85
2023-04-10T22:50:10.434Z,97130.77
2023-04-10T22:52:39.670Z,97127.49
2023-04-10T22:55:09.972Z,97123.80
2023-04-10T22:57:38.885Z,97121.92
2023-04-10T23:00:07.543Z,97117.39
2023-04-10T23:02:36.131Z,97115.65
2023-04-10T23:05:05.802Z,97114.23
2023-04-10T23:07:35.255Z,97109.23
2023-04-10T23:10:04.648Z,97114.15
2023-04-10T23:12:34.551Z,97115.59
2023-04-10T23:15:03.144Z,97120.51
2023-04-10T23:17:31.312Z,97114.23
2023-04-10T23:20:00.753Z,97113.10
2023-04-10T23:22:29.717Z,97110.77
2023-04-10T23:24:58.701Z,97109.79
2023-04-10T23:27:27.894Z,97104.36
2023-04-10T23:29:56.448Z,97104.05
2023-04-10T23:32:24.452Z,97100.35
2023-04-10T23:34:53.522Z,97098.29
2023-04-10T23:37:22.042Z,97096.38
2023-04-10T23:39:50.216Z,97095.69
2023-04-10T23:42:19.282Z,97092.23
2023-04-10T23:44:48.322Z,97090.30
2023-04-10T23:47:18.596Z,97087.27
2023-04-10T23:49:47.428Z,97087.83
2023-04-10T23:52:16.954Z,97082.42
2023-04-10T23:54:44.982Z,97078.34
2023-04-10T23:57:13.208Z,97078.55
2023-04-10T23:59:42.688Z,97080.79
